Flight Track Log - Related Links

Times and Time Zones

All times are in EDT time to prevent confusion due to time zone crossing. See the N93XP flight status page for this flight to view local times or setup timezone preferences in your user account.


Time Position Orientation Groundspeed Altitude Reporting Facility
EDT Latitude Longitude Course Direction KTS MPH feet Rate Location/Type
Sat 07:01:38 PM 26.0719 -80.1758 269° West 162 186 1,000  Level Miami Center
Sat 07:02:21 PM 26.0711 -80.2175 269° West 202 232 2,900 2,330 Climbing Miami Center
Sat 07:03:21 PM 26.0778 -80.2869 276° West 259 298 5,000 1,983 Climbing Miami Center
Sat 07:04:22 PM 26.1117 -80.3575 298° West 263 303 6,900 2,260 Climbing Miami Center
Sat 07:04:38 PM 26.1258 -80.3764 310° West 267 307 7,900 2,921 Climbing Miami Center
Sat 07:05:38 PM 26.1556 -80.4419 297° West 272 313 10,600 2,150 Climbing Miami Center
Sat 07:06:38 PM 26.1892 -80.5194 296° West 272 313 12,200 1,550 Climbing Miami Center
Sat 07:07:38 PM 26.2286 -80.6064 297° West 286 329 13,700 1,450 Climbing Miami Center
Sat 07:08:38 PM 26.3003 -80.6619 325° Northwest 300 345 15,100 1,550 Climbing Miami Center
Sat 07:09:38 PM 26.3742 -80.7083 331° Northwest 336 387 16,800 1,650 Climbing Miami Center
Sat 07:10:38 PM 26.4667 -80.7669 330° Northwest 341 392 18,400 1,500 Climbing Miami Center
Sat 07:11:38 PM 26.5469 -80.8139 332° Northwest 351 404 19,800 1,400 Climbing Miami Center
Sat 07:12:38 PM 26.6311 -80.8678 330° Northwest 345 397 21,200 1,500 Climbing Miami Center
Sat 07:13:38 PM 26.7167 -80.9428 322° Northwest 355 409 22,800 1,400 Climbing Miami Center
Sat 07:14:38 PM 26.7961 -81.0083 324° Northwest 355 409 24,000 1,150 Climbing Miami Center
Sat 07:15:38 PM 26.8656 -81.0642 324° Northwest 355 409 25,100 1,091 Climbing Miami Center
Sat 07:16:39 PM 26.9450 -81.1300 324° Northwest 355 409 26,200 1,041 Climbing Miami Center
Sat 07:17:39 PM 27.0225 -81.1958 323° Northwest 355 409 27,200 1,008 Climbing Miami Center
Sat 07:18:38 PM 27.1119 -81.2714 323° Northwest 360 414 28,200 1,000 Climbing Miami Center
Sat 07:19:39 PM 27.1975 -81.3425 324° Northwest 365 420 29,200 942 Climbing Miami Center
Sat 07:20:39 PM 27.2728 -81.4061 323° Northwest 379 436 30,100 900 Climbing Miami Center
Sat 07:21:39 PM 27.3561 -81.4772 323° Northwest 379 436 31,000 1,008 Climbing Miami Center
Sat 07:22:38 PM 27.4517 -81.5558 324° Northwest 379 436 32,100 1,008 Climbing Miami Center
Sat 07:23:38 PM 27.5350 -81.6294 322° Northwest 379 436 33,000 900 Climbing Miami Center
Sat 07:24:38 PM 27.6203 -81.7011 323° Northwest 379 436 33,900 872 Climbing Miami Center
Sat 07:26:30 PM 27.7678 -81.8208 324° Northwest 387 445 35,500 872 Climbing Jacksonville Center
Sat 07:27:30 PM 27.8539 -81.8928 324° Northwest 387 445 36,400 850 Climbing Jacksonville Center
Sat 07:28:30 PM 27.9317 -81.9647 321° Northwest 380 437 37,200 650 Climbing Jacksonville Center
Sat 07:29:30 PM 28.0114 -82.0344 322° Northwest 369 425 37,700 400 Climbing Jacksonville Center
Sat 07:30:30 PM 28.0911 -82.1067 321° Northwest 369 425 38,000 150 Climbing Jacksonville Center
Sat 07:31:30 PM 28.1750 -82.1814 322° Northwest 375 432 38,000  Level Jacksonville Center
Sat 07:32:30 PM 28.2589 -82.2564 322° Northwest 375 432 38,000  Level Jacksonville Center
Sat 07:33:30 PM 28.3450 -82.3336 322° Northwest 380 437 38,000  Level Jacksonville Center
Sat 07:34:30 PM 28.4308 -82.4086 322° Northwest 380 437 38,000  Level Jacksonville Center
Sat 07:35:30 PM 28.5167 -82.4886 321° Northwest 386 444 38,000  Level Jacksonville Center
Sat 07:36:30 PM 28.6044 -82.5686 321° Northwest 397 457 38,000  Level Jacksonville Center
Sat 07:37:30 PM 28.6986 -82.6536 322° Northwest 402 463 38,000  Level Jacksonville Center
Sat 07:38:30 PM 28.7800 -82.7386 318° Northwest 402 463 38,000  Level Jacksonville Center
Sat 07:39:30 PM 28.8261 -82.8522 295° West 395 455 38,000  Level Jacksonville Center
Sat 07:40:30 PM 28.8636 -82.9683 290° West 390 449 38,000  Level Jacksonville Center
Sat 07:41:30 PM 28.8969 -83.0894 287° West 390 449 38,000  Level Jacksonville Center
Sat 07:42:30 PM 28.9300 -83.1939 290° West 395 455 38,000  Level Jacksonville Center
Sat 07:43:30 PM 28.9672 -83.3150 289° West 395 455 38,000  Level Jacksonville Center
Sat 07:44:30 PM 29.0044 -83.4386 289° West 405 466 38,000  Level Jacksonville Center
Sat 07:45:30 PM 29.0394 -83.5622 288° West 405 466 38,000 -50 Level Jacksonville Center
Sat 07:46:30 PM 29.0761 -83.6839 289° West 405 466 37,900  Descending Jacksonville Center
Sat 07:47:30 PM 29.1131 -83.8075 289° West 405 466 38,000 50 Climbing Jacksonville Center
Sat 07:48:30 PM 29.1494 -83.9317 289° West 405 466 38,000  Level Jacksonville Center
Sat 07:49:30 PM 29.1819 -84.0508 287° West 405 466 38,000  Level Jacksonville Center
Sat 07:50:30 PM 29.2183 -84.1750 289° West 400 460 38,000  Level Jacksonville Center
Sat 07:51:30 PM 29.2547 -84.2922 290° West 400 460 38,000  Level Jacksonville Center
Sat 07:52:30 PM 29.2889 -84.4142 288° West 400 460 38,000  Level Jacksonville Center
Sat 07:53:30 PM 29.3267 -84.5481 288° West 400 460 38,000  Level Jacksonville Center
Sat 07:54:30 PM 29.3628 -84.6678 289° West 400 460 38,000  Level Jacksonville Center
Sat 07:55:30 PM 29.3964 -84.7900 288° West 400 460 38,000  Level Jacksonville Center
Sat 07:56:30 PM 29.4300 -84.9122 288° West 400 460 38,000  Level Jacksonville Center
Sat 07:57:30 PM 29.4678 -85.0322 290° West 400 460 38,000  Level Jacksonville Center
Sat 07:58:30 PM 29.5011 -85.1547 287° West 400 460 38,000  Level Jacksonville Center
Sat 07:59:30 PM 29.5344 -85.2747 288° West 400 460 38,000  Level Jacksonville Center
Sat 08:00:30 PM 29.5639 -85.3806 288° West 400 460 38,000  Level Jacksonville Center
Sat 08:01:30 PM 29.5969 -85.5031 287° West 400 460 38,000  Level Jacksonville Center
Sat 08:02:30 PM 29.6297 -85.6258 287° West 400 460 38,000  Level Jacksonville Center
Sat 08:03:30 PM 29.6625 -85.7464 287° West 400 460 38,000  Level Jacksonville Center
Sat 08:04:30 PM 29.6975 -85.8667 289° West 400 460 38,000  Level Jacksonville Center
Sat 08:05:30 PM 29.7322 -85.9875 288° West 400 460 38,000  Level Jacksonville Center
Sat 08:06:30 PM 29.7644 -86.1106 287° West 400 460 38,000  Level Jacksonville Center
Sat 08:07:30 PM 29.7989 -86.2336 288° West 400 460 38,000  Level Jacksonville Center
Sat 08:08:30 PM 29.8314 -86.3519 288° West 400 460 38,000  Level Jacksonville Center
Sat 08:09:30 PM 29.8633 -86.4753 287° West 400 460 38,000  Level Jacksonville Center
Sat 08:10:30 PM 29.8994 -86.6011 288° West 400 460 38,000  Level Jacksonville Center
Sat 08:11:30 PM 29.9314 -86.7222 287° West 400 460 38,000  Level Jacksonville Center
Sat 08:12:30 PM 29.9631 -86.8458 287° West 400 460 38,000  Level Jacksonville Center
Sat 08:13:30 PM 29.9967 -86.9719 287° West 400 460 38,000  Level Jacksonville Center
Sat 08:15:18 PM 30.0536 -87.1917 287° West 405 466 38,000  Level Houston Center
Sat 08:16:20 PM 30.0872 -87.3158 287° West 405 466 38,000  Level Houston Center
Sat 08:17:21 PM 30.1236 -87.4603 286° West 406 467 38,000  Level Houston Center
Sat 08:18:22 PM 30.1567 -87.5850 287° West 407 468 38,000  Level Houston Center
Sat 08:19:24 PM 30.1875 -87.7103 286° West 406 467 38,000  Level Houston Center
Sat 08:20:25 PM 30.2200 -87.8342 287° West 404 465 38,000  Level Houston Center
Sat 08:21:26 PM 30.2500 -87.9589 286° West 402 463 38,000  Level Houston Center
Sat 08:22:27 PM 30.2825 -88.0836 287° West 404 465 38,000  Level Houston Center
Sat 08:23:29 PM 30.3133 -88.2086 286° West 403 464 38,000  Level Houston Center
Sat 08:24:30 PM 30.3453 -88.3325 287° West 402 463 38,000  Level Houston Center
Sat 08:25:31 PM 30.3756 -88.4581 286° West 403 464 38,000  Level Houston Center
Sat 08:26:32 PM 30.4069 -88.5831 286° West 404 465 38,000  Level Houston Center
Sat 08:27:33 PM 30.4375 -88.7086 286° West 404 465 38,000  Level Houston Center
Sat 08:28:35 PM 30.4756 -88.8594 286° West 405 466 38,000  Level Houston Center
Sat 08:29:36 PM 30.5028 -88.9703 286° West 405 466 38,000  Level Houston Center
Sat 08:30:37 PM 30.5353 -89.0942 287° West 405 466 38,000  Level Houston Center
Sat 08:31:38 PM 30.5672 -89.2189 287° West 405 466 38,000  Level Houston Center
Sat 08:32:39 PM 30.6028 -89.3717 285° West 410 472 38,000  Level Houston Center
Sat 08:33:40 PM 30.6333 -89.4978 286° West 410 472 38,000  Level Houston Center
Sat 08:34:41 PM 30.6639 -89.6250 286° West 412 474 38,000  Level Houston Center
Sat 08:35:42 PM 30.6942 -89.7497 286° West 408 470 38,000  Level Houston Center
Sat 08:36:43 PM 30.7239 -89.8753 285° West 408 470 38,000  Level Houston Center
Sat 08:37:44 PM 30.7544 -90.0008 286° West 408 470 38,000  Level Houston Center
Sat 08:38:45 PM 30.7833 -90.1258 285° West 404 465 38,000  Level Houston Center
Sat 08:39:46 PM 30.8139 -90.2514 286° West 405 466 38,000  Level Houston Center
Sat 08:40:47 PM 30.8486 -90.4017 285° West 404 465 38,000  Level Houston Center
Sat 08:41:48 PM 30.8772 -90.5278 285° West 404 465 38,000  Level Houston Center
Sat 08:42:49 PM 30.9050 -90.6542 284° West 405 466 38,000  Level Houston Center
Sat 08:43:50 PM 30.9347 -90.7803 285° West 404 465 38,000  Level Houston Center
Sat 08:44:51 PM 30.9642 -90.9064 285° West 404 465 38,000  Level Houston Center
Sat 08:45:52 PM 30.9925 -91.0328 285° West 405 466 38,000  Level Houston Center
Sat 08:46:53 PM 31.0222 -91.1581 286° West 403 464 38,000  Level Houston Center
Sat 08:47:54 PM 31.0503 -91.2844 285° West 403 464 38,000  Level Houston Center
Sat 08:48:55 PM 31.0817 -91.4261 285° West 403 464 38,000  Level Houston Center
Sat 08:49:56 PM 31.1103 -91.5531 285° West 404 465 38,000  Level Houston Center
Sat 08:50:57 PM 31.1381 -91.6806 284° West 405 466 38,000  Level Houston Center
Sat 08:51:58 PM 31.1658 -91.8067 284° West 404 465 38,000  Level Houston Center
Sat 08:52:59 PM 31.1936 -91.9339 284° West 404 465 38,000  Level Houston Center
Sat 08:54:00 PM 31.2217 -92.0594 285° West 403 464 38,000  Level Houston Center
Sat 08:55:01 PM 31.2497 -92.1867 284° West 404 465 38,000  Level Houston Center
Sat 08:56:02 PM 31.2769 -92.3128 284° West 403 464 38,000  Level Houston Center
Sat 08:57:03 PM 31.3053 -92.4392 285° West 403 464 38,000  Level Houston Center
Sat 08:58:03 PM 31.3319 -92.5661 284° West 404 465 38,000  Level Houston Center
Sat 08:59:04 PM 31.3589 -92.6933 284° West 404 465 38,000  Level Houston Center
Sat 09:00:05 PM 31.3914 -92.8444 284° West 401 461 38,000  Level Houston Center
Sat 09:01:06 PM 31.4178 -92.9714 284° West 402 463 38,000 -934 Level Houston Center
Sat 09:02:07 PM 31.4447 -93.0975 284° West 401 461 36,100 -2,016 Descending Houston Center
Sat 09:03:08 PM 31.4700 -93.2197 284° West 391 450 33,900 -2,016 Descending Houston Center
Sat 09:04:09 PM 31.4928 -93.3317 283° West 384 442 32,000 -2,033 Descending Houston Center
Sat 09:05:09 PM 31.5175 -93.4519 284° West 381 438 29,800 -2,083 Descending Houston Center
Sat 09:06:10 PM 31.5436 -93.5750 284° West 389 448 27,800 -2,115 Descending Houston Center
Sat 09:07:11 PM 31.5733 -93.7253 283° West 400 460 25,500 -2,115 Descending Houston Center
Sat 09:08:12 PM 31.6003 -93.8564 284° West 413 475 23,500 -1,918 Descending Houston Center
Sat 09:09:13 PM 31.6267 -93.9869 283° West 412 474 21,600 -1,983 Descending Houston Center
Sat 09:10:13 PM 31.6506 -94.1086 283° West 392 451 19,500 -2,033 Descending Houston Center
Sat 09:11:14 PM 31.6747 -94.2281 283° West 381 438 17,500 -2,262 Descending Houston Center
Sat 09:12:15 PM 31.6981 -94.3469 283° West 368 423 14,900 -2,509 Descending Houston Center
Sat 09:13:04 PM 31.7147 -94.4322 283° West 356 410 12,900 -2,477 Descending Houston Center
Sat 09:14:04 PM 31.7369 -94.5436 283° West 352 405 10,400 -1,785 Descending Houston Center
Sat 09:15:05 PM 31.7553 -94.6383 283° West 296 341 9,300 -1,180 Descending Houston Center
Sat 09:16:06 PM 31.7719 -94.7186 284° West 258 297 8,000 -1,133 Descending Houston Center
Sat 09:18:21 PM 31.8039 -94.8808 283° West 220 253 5,600 -1,046 Descending Fort Worth Center
Sat 09:19:21 PM 31.8114 -94.9492 277° West 214 246 4,600 -958 Descending Fort Worth Center
Sat 09:20:20 PM 31.8169 -95.0150 276° West 214 246 3,700 -915 Descending Fort Worth Center

Login

Don't have an account? Register now (free) for customized features, flight alerts, and more!